Schley, Virginia
Current Conditions -  °F | °C
As of 3:35 AM on Sunday 26 Oct 2014 (Local Time) from KW75 Reporting Station
Clear Clear  
Wind Chill: 54°   Ceiling: Unl
Heat Index: 54°   Visibility: 10mi
Dew Point: 46°   Wind: 3mph
Humidity: 73%   Direction: 280°W
Pressure: 29.71"   Gusts: NA
Location:  37.39°N, 76.46°W
Report Text: KW75 260735Z AUTO 28003KT 10SM CLR 12/08 A2971 RMK AO1 T01230076
Loading
Personal Weather Stations






























Interactive Weather Map
Tropical Storm Tracking
New forecast layout! Learn more

10-Day Weather Forecast

Advertisements
Track Severe Weather on mobile